sensor_id;sensor_type;location;lat;lon;timestamp;pressure;altitude;pressure_sealevel;temperature;humidity
64841;BME280;51307;52.162;7.560;2022-07-17T00:00:44;102184.88;;;15.54;51.44
64841;BME280;51307;52.162;7.560;2022-07-17T00:03:11;102189.19;;;15.55;51.56
64841;BME280;51307;52.162;7.560;2022-07-17T00:05:38;102184.75;;;15.55;51.54
64841;BME280;51307;52.162;7.560;2022-07-17T00:08:07;102185.34;;;15.49;51.62
64841;BME280;51307;52.162;7.560;2022-07-17T00:10:35;102182.47;;;15.42;51.82
64841;BME280;51307;52.162;7.560;2022-07-17T00:13:00;102187.00;;;15.32;51.94
64841;BME280;51307;52.162;7.560;2022-07-17T00:15:26;102180.38;;;15.28;52.17
64841;BME280;51307;52.162;7.560;2022-07-17T00:17:52;102185.91;;;15.25;52.53
64841;BME280;51307;52.162;7.560;2022-07-17T00:20:17;102183.59;;;15.22;52.44
64841;BME280;51307;52.162;7.560;2022-07-17T00:22:43;102176.97;;;15.18;52.67
64841;BME280;51307;52.162;7.560;2022-07-17T00:25:09;102181.00;;;15.12;52.61
64841;BME280;51307;52.162;7.560;2022-07-17T00:27:37;102179.81;;;15.07;52.99
64841;BME280;51307;52.162;7.560;2022-07-17T00:30:04;102187.16;;;15.03;53.05
64841;BME280;51307;52.162;7.560;2022-07-17T00:32:30;102185.66;;;15.00;53.22
64841;BME280;51307;52.162;7.560;2022-07-17T00:34:56;102186.94;;;14.96;53.30
64841;BME280;51307;52.162;7.560;2022-07-17T00:37:22;102189.19;;;14.91;53.39
64841;BME280;51307;52.162;7.560;2022-07-17T00:39:47;102189.91;;;14.83;53.51
64841;BME280;51307;52.162;7.560;2022-07-17T00:42:15;102189.00;;;14.75;53.66
64841;BME280;51307;52.162;7.560;2022-07-17T00:44:42;102183.09;;;14.63;53.87
64841;BME280;51307;52.162;7.560;2022-07-17T00:47:13;102184.28;;;14.51;54.17
64841;BME280;51307;52.162;7.560;2022-07-17T00:49:39;102186.34;;;14.47;54.17
64841;BME280;51307;52.162;7.560;2022-07-17T00:52:05;102184.69;;;14.46;54.47
64841;BME280;51307;52.162;7.560;2022-07-17T00:54:35;102180.28;;;14.47;54.39
64841;BME280;51307;52.162;7.560;2022-07-17T00:57:02;102182.47;;;14.41;54.58
64841;BME280;51307;52.162;7.560;2022-07-17T00:59:32;102187.34;;;14.36;54.53
64841;BME280;51307;52.162;7.560;2022-07-17T01:01:59;102177.16;;;14.33;54.84
64841;BME280;51307;52.162;7.560;2022-07-17T01:04:24;102183.09;;;14.35;54.82
64841;BME280;51307;52.162;7.560;2022-07-17T01:06:50;102180.59;;;14.34;54.84
64841;BME280;51307;52.162;7.560;2022-07-17T01:09:15;102181.97;;;14.28;54.90
64841;BME280;51307;52.162;7.560;2022-07-17T01:11:41;102182.56;;;14.22;54.83
64841;BME280;51307;52.162;7.560;2022-07-17T01:14:07;102178.69;;;14.16;55.11
64841;BME280;51307;52.162;7.560;2022-07-17T01:16:33;102180.91;;;14.11;55.09
64841;BME280;51307;52.162;7.560;2022-07-17T01:18:59;102175.66;;;14.11;55.38
64841;BME280;51307;52.162;7.560;2022-07-17T01:21:24;102180.22;;;14.09;55.42
64841;BME280;51307;52.162;7.560;2022-07-17T01:23:50;102174.28;;;14.07;55.45
64841;BME280;51307;52.162;7.560;2022-07-17T01:26:15;102179.41;;;14.09;55.36
64841;BME280;51307;52.162;7.560;2022-07-17T01:28:41;102183.97;;;14.07;55.51
64841;BME280;51307;52.162;7.560;2022-07-17T01:31:06;102186.72;;;14.05;55.66
64841;BME280;51307;52.162;7.560;2022-07-17T01:33:32;102182.44;;;14.04;55.73
64841;BME280;51307;52.162;7.560;2022-07-17T01:35:57;102192.78;;;14.06;55.74
64841;BME280;51307;52.162;7.560;2022-07-17T01:38:23;102189.22;;;14.07;55.76
64841;BME280;51307;52.162;7.560;2022-07-17T01:40:48;102192.53;;;14.09;55.67
64841;BME280;51307;52.162;7.560;2022-07-17T01:43:14;102183.28;;;14.05;55.67
64841;BME280;51307;52.162;7.560;2022-07-17T01:45:39;102188.97;;;14.00;55.81
64841;BME280;51307;52.162;7.560;2022-07-17T01:48:06;102193.66;;;13.96;55.54
64841;BME280;51307;52.162;7.560;2022-07-17T01:50:31;102190.75;;;13.90;55.73
64841;BME280;51307;52.162;7.560;2022-07-17T01:52:57;102193.00;;;13.85;55.97
64841;BME280;51307;52.162;7.560;2022-07-17T01:55:22;102192.44;;;13.71;55.82
64841;BME280;51307;52.162;7.560;2022-07-17T01:57:48;102194.13;;;13.63;56.17
64841;BME280;51307;52.162;7.560;2022-07-17T02:00:16;102187.34;;;13.50;56.48
64841;BME280;51307;52.162;7.560;2022-07-17T02:02:44;102192.16;;;13.45;56.80
64841;BME280;51307;52.162;7.560;2022-07-17T02:05:09;102183.44;;;13.45;56.88
64841;BME280;51307;52.162;7.560;2022-07-17T02:07:35;102187.75;;;13.46;57.17
64841;BME280;51307;52.162;7.560;2022-07-17T02:10:05;102183.59;;;13.43;57.34
64841;BME280;51307;52.162;7.560;2022-07-17T02:12:31;102191.19;;;13.46;57.19
64841;BME280;51307;52.162;7.560;2022-07-17T02:14:57;102187.75;;;13.46;57.12
64841;BME280;51307;52.162;7.560;2022-07-17T02:17:22;102193.28;;;13.43;56.95
64841;BME280;51307;52.162;7.560;2022-07-17T02:19:47;102188.56;;;13.36;57.21
64841;BME280;51307;52.162;7.560;2022-07-17T02:22:13;102183.59;;;13.33;57.12
64841;BME280;51307;52.162;7.560;2022-07-17T02:24:38;102185.25;;;13.34;57.15
64841;BME280;51307;52.162;7.560;2022-07-17T02:27:04;102193.25;;;13.33;57.33
64841;BME280;51307;52.162;7.560;2022-07-17T02:29:29;102191.44;;;13.33;57.15
64841;BME280;51307;52.162;7.560;2022-07-17T02:31:55;102193.13;;;13.34;57.15
64841;BME280;51307;52.162;7.560;2022-07-17T02:34:20;102191.63;;;13.32;57.38
64841;BME280;51307;52.162;7.560;2022-07-17T02:36:46;102189.94;;;13.31;57.44
64841;BME280;51307;52.162;7.560;2022-07-17T02:39:11;102196.56;;;13.25;57.78
64841;BME280;51307;52.162;7.560;2022-07-17T02:41:37;102194.66;;;13.27;58.01
64841;BME280;51307;52.162;7.560;2022-07-17T02:44:03;102196.16;;;13.30;58.24
64841;BME280;51307;52.162;7.560;2022-07-17T02:46:28;102194.66;;;13.27;57.99
64841;BME280;51307;52.162;7.560;2022-07-17T02:48:54;102192.56;;;13.21;57.64
64841;BME280;51307;52.162;7.560;2022-07-17T02:51:19;102197.94;;;13.10;57.46
64841;BME280;51307;52.162;7.560;2022-07-17T02:53:45;102195.94;;;13.02;57.61
64841;BME280;51307;52.162;7.560;2022-07-17T02:56:10;102200.47;;;12.90;57.84
64841;BME280;51307;52.162;7.560;2022-07-17T02:58:36;102200.13;;;12.74;58.22
64841;BME280;51307;52.162;7.560;2022-07-17T03:01:01;102203.28;;;12.68;58.51
64841;BME280;51307;52.162;7.560;2022-07-17T03:03:27;102196.50;;;12.65;58.67
64841;BME280;51307;52.162;7.560;2022-07-17T03:05:52;102200.63;;;12.58;58.91
64841;BME280;51307;52.162;7.560;2022-07-17T03:08:18;102206.38;;;12.52;58.92
64841;BME280;51307;52.162;7.560;2022-07-17T03:10:43;102205.44;;;12.53;59.24
64841;BME280;51307;52.162;7.560;2022-07-17T03:13:09;102207.34;;;12.51;58.97
64841;BME280;51307;52.162;7.560;2022-07-17T03:15:34;102210.38;;;12.46;59.29
64841;BME280;51307;52.162;7.560;2022-07-17T03:18:02;102203.84;;;12.41;59.25
64841;BME280;51307;52.162;7.560;2022-07-17T03:20:28;102204.13;;;12.38;59.44
64841;BME280;51307;52.162;7.560;2022-07-17T03:22:54;102211.56;;;12.32;59.43
64841;BME280;51307;52.162;7.560;2022-07-17T03:25:19;102206.44;;;12.31;59.44
64841;BME280;51307;52.162;7.560;2022-07-17T03:27:45;102202.41;;;12.27;59.70
64841;BME280;51307;52.162;7.560;2022-07-17T03:30:10;102205.53;;;12.21;59.78
64841;BME280;51307;52.162;7.560;2022-07-17T03:32:36;102207.59;;;12.17;59.90
64841;BME280;51307;52.162;7.560;2022-07-17T03:35:01;102206.75;;;12.17;60.26
64841;BME280;51307;52.162;7.560;2022-07-17T03:37:28;102214.47;;;12.18;60.12
64841;BME280;51307;52.162;7.560;2022-07-17T03:39:54;102216.00;;;12.21;60.30
64841;BME280;51307;52.162;7.560;2022-07-17T03:42:19;102215.06;;;12.22;60.14
64841;BME280;51307;52.162;7.560;2022-07-17T03:44:45;102209.38;;;12.17;60.05
64841;BME280;51307;52.162;7.560;2022-07-17T03:47:10;102209.50;;;12.15;60.13
64841;BME280;51307;52.162;7.560;2022-07-17T03:49:36;102207.97;;;12.12;60.38
64841;BME280;51307;52.162;7.560;2022-07-17T03:52:01;102209.19;;;12.08;60.52
64841;BME280;51307;52.162;7.560;2022-07-17T03:54:27;102203.38;;;12.05;60.83
64841;BME280;51307;52.162;7.560;2022-07-17T03:56:52;102197.44;;;12.03;60.88
64841;BME280;51307;52.162;7.560;2022-07-17T03:59:18;102196.16;;;11.97;60.64
64841;BME280;51307;52.162;7.560;2022-07-17T04:01:43;102197.63;;;11.90;60.94
64841;BME280;51307;52.162;7.560;2022-07-17T04:04:09;102188.22;;;11.87;61.27
64841;BME280;51307;52.162;7.560;2022-07-17T04:06:34;102187.41;;;11.87;61.66
64841;BME280;51307;52.162;7.560;2022-07-17T04:09:00;102188.13;;;11.89;61.34
64841;BME280;51307;52.162;7.560;2022-07-17T04:11:25;102188.34;;;11.86;61.33
64841;BME280;51307;52.162;7.560;2022-07-17T04:13:51;102186.59;;;11.86;61.35
64841;BME280;51307;52.162;7.560;2022-07-17T04:16:17;102192.75;;;11.85;61.49
64841;BME280;51307;52.162;7.560;2022-07-17T04:18:42;102202.16;;;11.88;61.57
64841;BME280;51307;52.162;7.560;2022-07-17T04:21:09;102202.03;;;11.89;61.71
64841;BME280;51307;52.162;7.560;2022-07-17T04:23:35;102209.06;;;11.89;61.77
64841;BME280;51307;52.162;7.560;2022-07-17T04:26:02;102218.75;;;11.98;61.72
64841;BME280;51307;52.162;7.560;2022-07-17T04:28:28;102223.13;;;12.09;61.63
64841;BME280;51307;52.162;7.560;2022-07-17T04:30:53;102223.16;;;12.19;61.51
64841;BME280;51307;52.162;7.560;2022-07-17T04:33:19;102228.28;;;12.20;61.58
64841;BME280;51307;52.162;7.560;2022-07-17T04:35:44;102227.78;;;12.26;61.80
64841;BME280;51307;52.162;7.560;2022-07-17T04:38:10;102230.00;;;12.31;61.67
64841;BME280;51307;52.162;7.560;2022-07-17T04:40:38;102224.25;;;12.37;61.64
64841;BME280;51307;52.162;7.560;2022-07-17T04:43:05;102234.47;;;12.40;61.51
64841;BME280;51307;52.162;7.560;2022-07-17T04:45:31;102242.03;;;12.43;61.64
64841;BME280;51307;52.162;7.560;2022-07-17T04:47:57;102246.94;;;12.48;61.63
64841;BME280;51307;52.162;7.560;2022-07-17T04:50:23;102239.63;;;12.51;61.52
64841;BME280;51307;52.162;7.560;2022-07-17T04:52:49;102233.28;;;12.54;61.67
64841;BME280;51307;52.162;7.560;2022-07-17T04:55:15;102234.81;;;12.56;61.75
64841;BME280;51307;52.162;7.560;2022-07-17T04:57:41;102235.66;;;12.57;61.78
64841;BME280;51307;52.162;7.560;2022-07-17T05:00:09;102234.28;;;12.63;61.89
64841;BME280;51307;52.162;7.560;2022-07-17T05:02:36;102236.66;;;12.66;61.91
64841;BME280;51307;52.162;7.560;2022-07-17T05:05:02;102237.22;;;12.69;62.04
64841;BME280;51307;52.162;7.560;2022-07-17T05:07:28;102238.75;;;12.72;62.29
64841;BME280;51307;52.162;7.560;2022-07-17T05:09:53;102235.59;;;12.78;62.20
64841;BME280;51307;52.162;7.560;2022-07-17T05:12:19;102235.19;;;12.83;62.13
64841;BME280;51307;52.162;7.560;2022-07-17T05:14:44;102241.13;;;12.85;62.47
64841;BME280;51307;52.162;7.560;2022-07-17T05:17:10;102229.19;;;12.92;62.56
64841;BME280;51307;52.162;7.560;2022-07-17T05:19:36;102241.50;;;13.01;62.55
64841;BME280;51307;52.162;7.560;2022-07-17T05:22:03;102237.28;;;13.10;62.30
64841;BME280;51307;52.162;7.560;2022-07-17T05:24:29;102232.16;;;13.18;62.41
64841;BME280;51307;52.162;7.560;2022-07-17T05:26:55;102237.69;;;13.25;62.33
64841;BME280;51307;52.162;7.560;2022-07-17T05:29:21;102241.59;;;13.30;62.36
64841;BME280;51307;52.162;7.560;2022-07-17T05:31:47;102245.31;;;13.37;62.07
64841;BME280;51307;52.162;7.560;2022-07-17T05:34:12;102237.03;;;13.42;62.05
64841;BME280;51307;52.162;7.560;2022-07-17T05:36:38;102242.56;;;13.49;61.81
64841;BME280;51307;52.162;7.560;2022-07-17T05:39:03;102247.97;;;13.57;61.94
64841;BME280;51307;52.162;7.560;2022-07-17T05:41:29;102251.69;;;13.64;62.22
64841;BME280;51307;52.162;7.560;2022-07-17T05:43:54;102250.03;;;13.73;61.74
64841;BME280;51307;52.162;7.560;2022-07-17T05:46:20;102243.28;;;13.80;61.76
64841;BME280;51307;52.162;7.560;2022-07-17T05:48:45;102250.47;;;13.88;61.49
64841;BME280;51307;52.162;7.560;2022-07-17T05:51:11;102246.47;;;13.93;61.79
64841;BME280;51307;52.162;7.560;2022-07-17T05:53:36;102249.19;;;14.02;61.67
64841;BME280;51307;52.162;7.560;2022-07-17T05:56:02;102249.91;;;14.13;61.65
64841;BME280;51307;52.162;7.560;2022-07-17T05:58:28;102243.69;;;14.24;61.29
64841;BME280;51307;52.162;7.560;2022-07-17T06:00:53;102242.69;;;14.35;61.31
64841;BME280;51307;52.162;7.560;2022-07-17T06:03:19;102249.56;;;14.46;61.03
64841;BME280;51307;52.162;7.560;2022-07-17T06:05:45;102240.69;;;14.56;60.96
64841;BME280;51307;52.162;7.560;2022-07-17T06:08:10;102244.38;;;14.64;60.84
64841;BME280;51307;52.162;7.560;2022-07-17T06:10:36;102243.00;;;14.69;60.85
64841;BME280;51307;52.162;7.560;2022-07-17T06:13:04;102242.56;;;14.74;60.66
64841;BME280;51307;52.162;7.560;2022-07-17T06:15:29;102236.84;;;14.78;60.64
64841;BME280;51307;52.162;7.560;2022-07-17T06:17:55;102233.50;;;14.86;60.50
64841;BME280;51307;52.162;7.560;2022-07-17T06:20:21;102236.66;;;14.90;59.97
64841;BME280;51307;52.162;7.560;2022-07-17T06:22:46;102225.31;;;14.89;59.49
64841;BME280;51307;52.162;7.560;2022-07-17T06:25:12;102237.47;;;14.90;59.15
64841;BME280;51307;52.162;7.560;2022-07-17T06:27:39;102245.09;;;14.93;59.31
64841;BME280;51307;52.162;7.560;2022-07-17T06:30:07;102242.03;;;14.98;58.84
64841;BME280;51307;52.162;7.560;2022-07-17T06:32:33;102244.34;;;15.01;58.54
64841;BME280;51307;52.162;7.560;2022-07-17T06:34:58;102235.38;;;15.03;58.20
64841;BME280;51307;52.162;7.560;2022-07-17T06:37:24;102233.56;;;15.04;58.03
64841;BME280;51307;52.162;7.560;2022-07-17T06:39:49;102243.91;;;15.06;58.10
64841;BME280;51307;52.162;7.560;2022-07-17T06:42:15;102246.94;;;15.11;58.16
64841;BME280;51307;52.162;7.560;2022-07-17T06:44:40;102238.63;;;15.15;58.35
64841;BME280;51307;52.162;7.560;2022-07-17T06:47:06;102233.22;;;15.17;58.23
64841;BME280;51307;52.162;7.560;2022-07-17T06:49:31;102226.66;;;15.21;58.05
64841;BME280;51307;52.162;7.560;2022-07-17T06:51:57;102218.75;;;15.21;58.00
64841;BME280;51307;52.162;7.560;2022-07-17T06:54:22;102205.59;;;15.21;57.59
64841;BME280;51307;52.162;7.560;2022-07-17T06:56:50;102211.25;;;15.26;57.66
64841;BME280;51307;52.162;7.560;2022-07-17T06:59:16;102216.78;;;15.33;57.78
64841;BME280;51307;52.162;7.560;2022-07-17T07:01:41;102218.66;;;15.40;57.20
64841;BME280;51307;52.162;7.560;2022-07-17T07:04:07;102216.41;;;15.46;56.89
64841;BME280;51307;52.162;7.560;2022-07-17T07:06:33;102214.28;;;15.49;56.72
64841;BME280;51307;52.162;7.560;2022-07-17T07:08:58;102215.78;;;15.52;56.18
64841;BME280;51307;52.162;7.560;2022-07-17T07:11:25;102222.75;;;15.53;55.65
64841;BME280;51307;52.162;7.560;2022-07-17T07:13:50;102228.38;;;15.58;55.74
64841;BME280;51307;52.162;7.560;2022-07-17T07:16:16;102235.00;;;15.62;55.27
64841;BME280;51307;52.162;7.560;2022-07-17T07:18:41;102226.50;;;15.68;55.02
64841;BME280;51307;52.162;7.560;2022-07-17T07:21:07;102238.38;;;15.72;54.24
64841;BME280;51307;52.162;7.560;2022-07-17T07:23:32;102249.72;;;15.73;54.16
64841;BME280;51307;52.162;7.560;2022-07-17T07:25:58;102264.41;;;15.75;53.88
64841;BME280;51307;52.162;7.560;2022-07-17T07:28:23;102259.81;;;15.77;53.74
64841;BME280;51307;52.162;7.560;2022-07-17T07:30:49;102270.56;;;15.84;53.45
64841;BME280;51307;52.162;7.560;2022-07-17T07:33:14;102282.47;;;15.88;53.58
64841;BME280;51307;52.162;7.560;2022-07-17T07:35:42;102280.38;;;15.92;53.39
64841;BME280;51307;52.162;7.560;2022-07-17T07:38:09;102276.28;;;15.97;53.16
64841;BME280;51307;52.162;7.560;2022-07-17T07:40:35;102276.63;;;16.02;53.19
64841;BME280;51307;52.162;7.560;2022-07-17T07:43:00;102272.72;;;16.06;52.63
64841;BME280;51307;52.162;7.560;2022-07-17T07:45:26;102281.03;;;16.12;52.54
64841;BME280;51307;52.162;7.560;2022-07-17T07:47:52;102269.69;;;16.19;53.02
64841;BME280;51307;52.162;7.560;2022-07-17T07:50:19;102255.75;;;16.27;52.90
64841;BME280;51307;52.162;7.560;2022-07-17T07:52:46;102265.00;;;16.31;52.41
64841;BME280;51307;52.162;7.560;2022-07-17T07:55:13;102265.88;;;16.32;51.96
64841;BME280;51307;52.162;7.560;2022-07-17T07:57:39;102272.41;;;16.27;51.69
64841;BME280;51307;52.162;7.560;2022-07-17T08:00:06;102274.59;;;16.32;52.09
64841;BME280;51307;52.162;7.560;2022-07-17T08:02:33;102273.59;;;16.33;51.92
64841;BME280;51307;52.162;7.560;2022-07-17T08:04:58;102270.97;;;16.33;51.63
64841;BME280;51307;52.162;7.560;2022-07-17T08:07:26;102272.03;;;16.40;51.89
64841;BME280;51307;52.162;7.560;2022-07-17T08:09:52;102277.66;;;16.45;51.59
64841;BME280;51307;52.162;7.560;2022-07-17T08:12:18;102272.06;;;16.49;51.49
64841;BME280;51307;52.162;7.560;2022-07-17T08:14:43;102276.84;;;16.53;51.34
64841;BME280;51307;52.162;7.560;2022-07-17T08:17:09;102286.28;;;16.56;51.03
64841;BME280;51307;52.162;7.560;2022-07-17T08:19:34;102283.66;;;16.56;50.78
64841;BME280;51307;52.162;7.560;2022-07-17T08:22:00;102276.56;;;16.56;50.92
64841;BME280;51307;52.162;7.560;2022-07-17T08:24:25;102278.88;;;16.59;51.17
64841;BME280;51307;52.162;7.560;2022-07-17T08:26:51;102271.97;;;16.66;51.34
64841;BME280;51307;52.162;7.560;2022-07-17T08:29:17;102277.16;;;16.76;51.18
64841;BME280;51307;52.162;7.560;2022-07-17T08:31:43;102278.50;;;16.80;50.81
64841;BME280;51307;52.162;7.560;2022-07-17T08:34:08;102278.50;;;16.80;50.03
64841;BME280;51307;52.162;7.560;2022-07-17T08:36:34;102277.84;;;16.78;50.21
64841;BME280;51307;52.162;7.560;2022-07-17T08:38:59;102270.59;;;16.80;50.53
64841;BME280;51307;52.162;7.560;2022-07-17T08:41:28;102267.28;;;16.78;50.06
64841;BME280;51307;52.162;7.560;2022-07-17T08:43:54;102263.63;;;16.79;49.74
64841;BME280;51307;52.162;7.560;2022-07-17T08:46:23;102271.25;;;16.82;50.21
64841;BME280;51307;52.162;7.560;2022-07-17T08:48:56;102264.84;;;16.85;50.15
64841;BME280;51307;52.162;7.560;2022-07-17T08:51:26;102265.16;;;16.90;50.08
64841;BME280;51307;52.162;7.560;2022-07-17T08:53:52;102262.88;;;16.95;49.85
64841;BME280;51307;52.162;7.560;2022-07-17T08:56:18;102263.91;;;17.02;49.48
64841;BME280;51307;52.162;7.560;2022-07-17T08:58:44;102262.78;;;17.13;49.32
64841;BME280;51307;52.162;7.560;2022-07-17T09:01:09;102269.06;;;17.20;49.24
64841;BME280;51307;52.162;7.560;2022-07-17T09:03:35;102268.97;;;17.30;48.89
64841;BME280;51307;52.162;7.560;2022-07-17T09:06:02;102266.50;;;17.28;48.38
64841;BME280;51307;52.162;7.560;2022-07-17T09:08:28;102260.00;;;17.23;47.86
64841;BME280;51307;52.162;7.560;2022-07-17T09:10:57;102259.50;;;17.19;47.91
64841;BME280;51307;52.162;7.560;2022-07-17T09:13:26;102263.94;;;17.19;47.62
64841;BME280;51307;52.162;7.560;2022-07-17T09:15:55;102265.25;;;17.15;47.54
64841;BME280;51307;52.162;7.560;2022-07-17T09:18:21;102260.97;;;17.14;47.13
64841;BME280;51307;52.162;7.560;2022-07-17T09:20:50;102263.66;;;17.22;47.72
64841;BME280;51307;52.162;7.560;2022-07-17T09:23:18;102254.59;;;17.33;47.93
64841;BME280;51307;52.162;7.560;2022-07-17T09:25:47;102259.59;;;17.44;47.89
64841;BME280;51307;52.162;7.560;2022-07-17T09:28:14;102257.47;;;17.56;47.74
64841;BME280;51307;52.162;7.560;2022-07-17T09:30:46;102262.56;;;17.65;47.50
64841;BME280;51307;52.162;7.560;2022-07-17T09:35:53;102271.69;;;17.71;46.83
64841;BME280;51307;52.162;7.560;2022-07-17T09:46:33;102266.22;;;17.81;45.60
64841;BME280;51307;52.162;7.560;2022-07-17T09:49:04;102262.78;;;17.88;45.62
64841;BME280;51307;52.162;7.560;2022-07-17T09:51:33;102265.38;;;17.97;45.74
64841;BME280;51307;52.162;7.560;2022-07-17T09:54:01;102259.78;;;18.00;45.58
64841;BME280;51307;52.162;7.560;2022-07-17T09:56:30;102257.63;;;18.03;46.28
64841;BME280;51307;52.162;7.560;2022-07-17T09:59:06;102264.88;;;18.09;46.40
64841;BME280;51307;52.162;7.560;2022-07-17T10:01:33;102257.47;;;18.13;45.16
64841;BME280;51307;52.162;7.560;2022-07-17T10:03:59;102264.38;;;18.14;44.82
64841;BME280;51307;52.162;7.560;2022-07-17T10:06:26;102252.00;;;18.15;44.97
64841;BME280;51307;52.162;7.560;2022-07-17T10:08:53;102242.44;;;18.22;45.84
64841;BME280;51307;52.162;7.560;2022-07-17T10:11:27;102249.50;;;18.29;45.58
64841;BME280;51307;52.162;7.560;2022-07-17T10:14:01;102253.31;;;18.35;45.13
64841;BME280;51307;52.162;7.560;2022-07-17T10:16:30;102253.63;;;18.40;45.42
64841;BME280;51307;52.162;7.560;2022-07-17T10:18:57;102255.75;;;18.45;45.42
64841;BME280;51307;52.162;7.560;2022-07-17T10:21:27;102248.84;;;18.44;44.94
64841;BME280;51307;52.162;7.560;2022-07-17T10:26:39;102250.97;;;18.57;45.14
64841;BME280;51307;52.162;7.560;2022-07-17T10:31:51;102251.91;;;18.64;43.14
64841;BME280;51307;52.162;7.560;2022-07-17T10:34:18;102254.25;;;18.59;42.78
64841;BME280;51307;52.162;7.560;2022-07-17T10:36:44;102252.59;;;18.58;43.29
64841;BME280;51307;52.162;7.560;2022-07-17T10:39:18;102250.44;;;18.61;43.10
64841;BME280;51307;52.162;7.560;2022-07-17T10:42:01;102248.91;;;18.67;43.60
64841;BME280;51307;52.162;7.560;2022-07-17T10:44:28;102251.53;;;18.75;43.74
64841;BME280;51307;52.162;7.560;2022-07-17T10:46:55;102250.50;;;18.84;43.61
64841;BME280;51307;52.162;7.560;2022-07-17T10:49:22;102253.28;;;18.91;42.50
64841;BME280;51307;52.162;7.560;2022-07-17T10:51:49;102245.69;;;18.88;41.71
64841;BME280;51307;52.162;7.560;2022-07-17T10:54:17;102249.97;;;18.89;41.92
64841;BME280;51307;52.162;7.560;2022-07-17T10:56:43;102244.69;;;18.89;41.54
64841;BME280;51307;52.162;7.560;2022-07-17T10:59:12;102256.59;;;18.93;41.69
64841;BME280;51307;52.162;7.560;2022-07-17T11:01:39;102252.59;;;18.97;40.39
64841;BME280;51307;52.162;7.560;2022-07-17T11:04:05;102248.78;;;19.00;40.49
64841;BME280;51307;52.162;7.560;2022-07-17T11:06:38;102256.41;;;19.03;39.29
64841;BME280;51307;52.162;7.560;2022-07-17T11:09:12;102259.84;;;19.03;39.21
64841;BME280;51307;52.162;7.560;2022-07-17T11:11:39;102243.16;;;19.03;39.45
64841;BME280;51307;52.162;7.560;2022-07-17T11:16:52;102242.78;;;19.14;39.27
64841;BME280;51307;52.162;7.560;2022-07-17T11:19:27;102240.28;;;19.21;39.26
64841;BME280;51307;52.162;7.560;2022-07-17T11:21:55;102239.91;;;19.24;39.12
64841;BME280;51307;52.162;7.560;2022-07-17T11:24:22;102244.88;;;19.27;39.20
64841;BME280;51307;52.162;7.560;2022-07-17T11:26:50;102239.69;;;19.33;39.90
64841;BME280;51307;52.162;7.560;2022-07-17T11:29:16;102241.81;;;19.38;39.65
64841;BME280;51307;52.162;7.560;2022-07-17T11:31:43;102248.88;;;19.46;39.80
64841;BME280;51307;52.162;7.560;2022-07-17T11:34:10;102240.59;;;19.49;39.76
64841;BME280;51307;52.162;7.560;2022-07-17T11:36:42;102243.41;;;19.47;38.69
64841;BME280;51307;52.162;7.560;2022-07-17T11:39:14;102227.69;;;19.46;38.90
64841;BME280;51307;52.162;7.560;2022-07-17T11:41:43;102236.09;;;19.49;39.04
64841;BME280;51307;52.162;7.560;2022-07-17T11:44:11;102234.09;;;19.51;38.23
64841;BME280;51307;52.162;7.560;2022-07-17T11:46:40;102226.03;;;19.45;37.87
64841;BME280;51307;52.162;7.560;2022-07-17T11:49:07;102234.44;;;19.48;38.09
64841;BME280;51307;52.162;7.560;2022-07-17T11:54:04;102219.50;;;19.55;38.56
64841;BME280;51307;52.162;7.560;2022-07-17T11:56:30;102220.06;;;19.66;38.66
64841;BME280;51307;52.162;7.560;2022-07-17T11:58:55;102218.44;;;19.80;38.82
64841;BME280;51307;52.162;7.560;2022-07-17T12:01:21;102227.47;;;19.93;38.55
64841;BME280;51307;52.162;7.560;2022-07-17T12:03:57;102216.25;;;20.06;37.56
64841;BME280;51307;52.162;7.560;2022-07-17T12:06:26;102216.53;;;20.11;36.78
64841;BME280;51307;52.162;7.560;2022-07-17T12:08:54;102214.44;;;20.07;36.50
64841;BME280;51307;52.162;7.560;2022-07-17T12:11:21;102209.03;;;20.00;36.69
64841;BME280;51307;52.162;7.560;2022-07-17T12:13:47;102208.81;;;20.02;36.73
64841;BME280;51307;52.162;7.560;2022-07-17T12:16:31;102204.81;;;20.06;36.21
64841;BME280;51307;52.162;7.560;2022-07-17T12:19:04;102197.50;;;20.08;35.70
64841;BME280;51307;52.162;7.560;2022-07-17T12:21:33;102198.53;;;20.07;35.71
64841;BME280;51307;52.162;7.560;2022-07-17T12:24:01;102195.50;;;20.10;36.10
64841;BME280;51307;52.162;7.560;2022-07-17T12:26:28;102198.63;;;20.13;35.04
64841;BME280;51307;52.162;7.560;2022-07-17T12:28:54;102191.47;;;20.14;35.02
64841;BME280;51307;52.162;7.560;2022-07-17T12:31:20;102195.88;;;20.22;34.75
64841;BME280;51307;52.162;7.560;2022-07-17T12:33:46;102188.00;;;20.28;34.28
64841;BME280;51307;52.162;7.560;2022-07-17T12:36:12;102186.19;;;20.29;33.68
64841;BME280;51307;52.162;7.560;2022-07-17T12:38:38;102182.97;;;20.33;34.77
64841;BME280;51307;52.162;7.560;2022-07-17T12:41:03;102178.66;;;20.47;35.10
64841;BME280;51307;52.162;7.560;2022-07-17T12:43:30;102177.81;;;20.62;34.43
64841;BME280;51307;52.162;7.560;2022-07-17T12:45:56;102175.88;;;20.70;34.18
64841;BME280;51307;52.162;7.560;2022-07-17T12:48:22;102189.63;;;20.74;33.16
64841;BME280;51307;52.162;7.560;2022-07-17T12:50:47;102177.25;;;20.66;33.24
64841;BME280;51307;52.162;7.560;2022-07-17T12:53:13;102169.09;;;20.68;33.09
64841;BME280;51307;52.162;7.560;2022-07-17T12:55:38;102174.03;;;20.71;32.97
64841;BME280;51307;52.162;7.560;2022-07-17T12:58:05;102168.66;;;20.79;33.09
64841;BME280;51307;52.162;7.560;2022-07-17T13:00:30;102171.38;;;20.86;33.18
64841;BME280;51307;52.162;7.560;2022-07-17T13:02:56;102163.50;;;20.92;32.82
64841;BME280;51307;52.162;7.560;2022-07-17T13:05:22;102173.09;;;20.93;32.07
64841;BME280;51307;52.162;7.560;2022-07-17T13:07:48;102166.78;;;20.94;31.91